Time;durP1;ratioP1;P1;durP2;ratioP2;P2;SDS_P1;SDS_P2;PMS_P1;PMS_P2;Temp;Humidity;BMP_temperature;BMP_pressure;BME280_temperature;BME280_humidity;BME280_pressure;Samples;Min_cycle;Max_cycle;Signal;HPM_P1;HPM_P2
2024/03/21 00:00:53;;;;;;;14.10;10.97;;;15.30;97.60;;;;;;5076341;28;20444;-56
2024/03/21 00:03:19;;;;;;;14.97;11.73;;;15.30;97.50;;;;;;5076240;28;20448;-56
2024/03/21 00:05:46;;;;;;;11.20;10.00;;;15.30;97.50;;;;;;5075905;28;20450;-56
2024/03/21 00:08:11;;;;;;;11.63;9.87;;;15.20;97.20;;;;;;5076290;28;20289;-56
2024/03/21 00:10:38;;;;;;;13.80;11.40;;;15.20;97.10;;;;;;5076022;28;20567;-56
2024/03/21 00:13:04;;;;;;;12.40;11.20;;;15.20;97.20;;;;;;5076093;28;20311;-56
2024/03/21 00:15:32;;;;;;;14.17;10.70;;;15.10;97.20;;;;;;5075931;28;20548;-55
2024/03/21 00:18:00;;;;;;;11.50;10.40;;;15.00;97.30;;;;;;5075868;28;20202;-56
2024/03/21 00:20:28;;;;;;;11.30;9.17;;;15.00;97.80;;;;;;5075834;28;20456;-55
2024/03/21 00:22:54;;;;;;;10.20;9.20;;;15.00;97.80;;;;;;5075598;28;20535;-56
2024/03/21 00:25:21;;;;;;;10.60;9.50;;;15.00;97.50;;;;;;5075550;28;20543;-56
2024/03/21 00:27:46;;;;;;;10.50;9.40;;;15.00;97.50;;;;;;5075803;28;20242;-56
2024/03/21 00:30:14;;;;;;;12.30;10.23;;;14.90;97.50;;;;;;5075644;28;20508;-56
2024/03/21 00:32:41;;;;;;;13.23;10.07;;;14.90;97.50;;;;;;5075272;28;20702;-56
2024/03/21 00:35:08;;;;;;;13.23;10.30;;;14.90;97.50;;;;;;5076270;28;20453;-56
2024/03/21 00:37:34;;;;;;;12.33;10.57;;;14.80;97.40;;;;;;5076692;28;20453;-56
2024/03/21 00:40:01;;;;;;;10.90;9.57;;;14.80;97.40;;;;;;5075894;28;20532;-56
2024/03/21 00:42:27;;;;;;;11.67;10.47;;;14.70;97.30;;;;;;5075723;28;20233;-56
2024/03/21 00:44:54;;;;;;;10.97;9.77;;;14.70;97.20;;;;;;5075751;28;20491;-56
2024/03/21 00:47:20;;;;;;;10.97;9.87;;;14.60;97.40;;;;;;5075712;28;20206;-56
2024/03/21 00:49:48;;;;;;;12.83;9.97;;;14.60;97.50;;;;;;5075233;28;20471;-56
2024/03/21 00:52:14;;;;;;;11.83;10.03;;;14.50;97.40;;;;;;5074927;28;20222;-56
2024/03/21 00:54:42;;;;;;;13.13;9.60;;;14.50;97.50;;;;;;5074535;28;20946;-56
2024/03/21 00:57:08;;;;;;;15.10;11.13;;;14.40;97.50;;;;;;5074557;28;20464;-56
2024/03/21 00:59:35;;;;;;;11.00;8.83;;;14.30;97.60;;;;;;5075073;28;20567;-56
2024/03/21 01:02:01;;;;;;;12.37;10.90;;;14.30;97.70;;;;;;5075141;28;20686;-56
2024/03/21 01:04:28;;;;;;;13.30;11.10;;;14.30;97.70;;;;;;5075072;28;20440;-56
2024/03/21 01:06:55;;;;;;;11.20;10.00;;;14.30;97.60;;;;;;5075127;28;20234;-56
2024/03/21 01:09:22;;;;;;;10.20;9.30;;;14.30;97.70;;;;;;5074977;28;20483;-56
2024/03/21 01:11:48;;;;;;;12.37;11.07;;;14.30;97.70;;;;;;5075075;28;20481;-56
2024/03/21 01:14:15;;;;;;;10.70;9.60;;;14.30;97.90;;;;;;5075119;28;20531;-56
2024/03/21 01:16:40;;;;;;;12.40;10.20;;;14.30;98.00;;;;;;5074915;28;20203;-56
2024/03/21 01:19:07;;;;;;;15.07;11.10;;;14.30;98.50;;;;;;5074468;28;20988;-56
2024/03/21 01:21:33;;;;;;;11.13;9.90;;;14.20;98.10;;;;;;5074629;28;20294;-56
2024/03/21 01:24:01;;;;;;;11.43;10.33;;;14.30;98.30;;;;;;5074715;28;20531;-56
2024/03/21 01:26:27;;;;;;;12.13;10.37;;;14.20;98.20;;;;;;5074763;28;20206;-56
2024/03/21 01:28:54;;;;;;;12.43;11.23;;;14.20;98.10;;;;;;5074335;28;20562;-56
2024/03/21 01:31:21;;;;;;;13.20;11.30;;;14.20;98.30;;;;;;5074500;28;20591;-56
2024/03/21 01:33:50;;;;;;;14.50;12.27;;;14.20;98.40;;;;;;5074312;28;20432;-56
2024/03/21 01:36:16;;;;;;;12.73;11.50;;;14.20;98.30;;;;;;5074561;28;20489;-56
2024/03/21 01:38:43;;;;;;;12.17;10.83;;;14.10;98.40;;;;;;5074506;28;20472;-56
2024/03/21 01:41:10;;;;;;;14.60;12.03;;;14.10;98.60;;;;;;5073997;28;21020;-56
2024/03/21 01:43:39;;;;;;;13.20;11.90;;;14.10;98.80;;;;;;5073410;28;20792;-56
2024/03/21 01:46:17;;;;;;;13.53;12.23;;;14.10;98.80;;;;;;5074149;28;20441;-56
2024/03/21 01:48:45;;;;;;;13.37;12.03;;;14.10;98.80;;;;;;5074283;28;20808;-56
2024/03/21 01:51:12;;;;;;;12.90;11.70;;;14.10;98.90;;;;;;5074081;28;20480;-56
2024/03/21 01:53:41;;;;;;;14.73;13.13;;;14.00;99.00;;;;;;5073774;28;20476;-56
2024/03/21 01:56:07;;;;;;;14.67;13.17;;;14.00;99.10;;;;;;5074083;28;20459;-56
2024/03/21 01:58:35;;;;;;;17.43;12.30;;;13.90;99.00;;;;;;5073832;28;20881;-56
2024/03/21 02:01:24;;;;;;;15.37;13.57;;;13.80;98.90;;;;;;5073973;28;20433;-56
2024/03/21 02:03:52;;;;;;;15.40;13.80;;;13.80;99.00;;;;;;5073883;28;20435;-56
2024/03/21 02:06:18;;;;;;;15.57;13.93;;;13.80;99.20;;;;;;5073533;28;20475;-56
2024/03/21 02:08:45;;;;;;;17.03;14.27;;;13.70;99.30;;;;;;5073672;28;20469;-56
2024/03/21 02:11:12;;;;;;;15.37;13.87;;;13.70;99.50;;;;;;5073695;28;20489;-56
2024/03/21 02:13:40;;;;;;;15.93;13.40;;;13.70;99.70;;;;;;5073520;28;20447;-56
2024/03/21 02:16:06;;;;;;;15.50;14.00;;;13.80;99.90;;;;;;5073297;28;20445;-56
2024/03/21 02:18:33;;;;;;;15.73;14.10;;;13.80;99.90;;;;;;5073242;28;20997;-56
2024/03/21 02:20:59;;;;;;;17.10;15.43;;;13.80;99.90;;;;;;5073527;28;20528;-56
2024/03/21 02:23:27;;;;;;;15.80;14.20;;;13.90;99.90;;;;;;5073188;28;20528;-56
2024/03/21 02:25:57;;;;;;;16.03;14.17;;;13.80;99.90;;;;;;5073564;28;20289;-56
2024/03/21 02:28:24;;;;;;;17.03;15.43;;;13.80;99.90;;;;;;5073362;28;20471;-56
2024/03/21 02:30:52;;;;;;;16.87;15.27;;;13.80;99.90;;;;;;5073394;28;20480;-56
2024/03/21 02:33:19;;;;;;;16.90;15.20;;;13.80;99.90;;;;;;5073460;28;20455;-56
2024/03/21 02:35:45;;;;;;;18.80;16.10;;;13.70;99.90;;;;;;5072978;28;20981;-57
2024/03/21 02:38:12;;;;;;;18.53;16.27;;;13.70;99.90;;;;;;5073238;28;20476;-56
2024/03/21 02:40:39;;;;;;;19.37;17.37;;;13.70;99.90;;;;;;5073265;28;20437;-56
2024/03/21 02:43:06;;;;;;;22.47;18.30;;;13.70;99.90;;;;;;5073213;28;20480;-56
2024/03/21 02:45:32;;;;;;;21.37;18.13;;;13.70;99.90;;;;;;5072931;28;20473;-56
2024/03/21 02:47:58;;;;;;;20.70;18.03;;;13.70;99.90;;;;;;5073048;28;20476;-56
2024/03/21 02:50:24;;;;;;;22.80;20.50;;;13.60;99.90;;;;;;5072776;28;20328;-56
2024/03/21 02:52:51;;;;;;;22.60;20.20;;;13.60;99.90;;;;;;5073187;28;20453;-56
2024/03/21 02:55:17;;;;;;;21.73;19.43;;;13.70;99.90;;;;;;5072647;28;20202;-56
2024/03/21 02:57:45;;;;;;;22.90;20.47;;;13.70;99.90;;;;;;5072842;28;20543;-56
2024/03/21 03:00:12;;;;;;;23.60;20.93;;;13.70;99.90;;;;;;5073143;28;20223;-56
2024/03/21 03:02:39;;;;;;;23.10;20.80;;;13.70;99.90;;;;;;5072881;28;20957;-56
2024/03/21 03:05:10;;;;;;;31.43;23.23;;;13.60;99.90;;;;;;5072722;28;20444;-56
2024/03/21 03:07:37;;;;;;;27.63;24.43;;;13.60;99.90;;;;;;5072800;28;20487;-56
2024/03/21 03:10:03;;;;;;;27.00;24.10;;;13.60;99.90;;;;;;5072715;28;20966;-56
2024/03/21 03:12:31;;;;;;;28.03;25.00;;;13.60;99.90;;;;;;5072861;28;20467;-56
2024/03/21 03:14:58;;;;;;;30.60;24.00;;;13.60;99.90;;;;;;5072918;28;20524;-56
2024/03/21 03:17:25;;;;;;;28.80;25.60;;;13.60;99.90;;;;;;5072982;28;20441;-56
2024/03/21 03:19:50;;;;;;;31.83;25.23;;;13.60;99.90;;;;;;5072826;28;20465;-56
2024/03/21 03:22:17;;;;;;;28.23;25.33;;;13.60;99.90;;;;;;5072915;28;20440;-56
2024/03/21 03:24:43;;;;;;;33.10;25.37;;;13.60;99.90;;;;;;5072707;28;20203;-56
2024/03/21 03:27:10;;;;;;;28.93;25.80;;;13.50;99.90;;;;;;5072846;28;20544;-56
2024/03/21 03:29:36;;;;;;;32.10;26.03;;;13.50;99.90;;;;;;5072675;28;20469;-56
2024/03/21 03:32:04;;;;;;;33.33;27.33;;;13.50;99.90;;;;;;5072704;28;20569;-56
2024/03/21 03:37:15;;;;;;;30.23;26.50;;;13.50;99.90;;;;;;5072688;28;20459;-55
2024/03/21 03:39:42;;;;;;;31.87;28.40;;;13.50;99.90;;;;;;5072408;28;20543;-56
2024/03/21 03:42:10;;;;;;;34.07;26.57;;;13.50;99.90;;;;;;5072780;28;20441;-56
2024/03/21 03:44:37;;;;;;;33.80;28.90;;;13.50;99.90;;;;;;5072778;28;20535;-56
2024/03/21 03:47:05;;;;;;;30.97;27.10;;;13.50;99.90;;;;;;5072595;28;20440;-56
2024/03/21 03:49:31;;;;;;;31.57;27.90;;;13.50;99.90;;;;;;5072575;28;20461;-56
2024/03/21 03:51:58;;;;;;;33.20;29.63;;;13.50;99.90;;;;;;5072592;28;20817;-56
2024/03/21 03:54:23;;;;;;;31.43;26.77;;;13.40;99.90;;;;;;5072335;28;20795;-56
2024/03/21 03:56:50;;;;;;;35.43;28.33;;;13.40;99.90;;;;;;5072739;28;20459;-56
2024/03/21 03:59:16;;;;;;;36.73;28.87;;;13.40;99.90;;;;;;5073069;28;20222;-56
2024/03/21 04:01:43;;;;;;;32.00;28.00;;;13.40;99.90;;;;;;5072902;28;20438;-56
2024/03/21 04:04:10;;;;;;;34.10;29.87;;;13.40;99.90;;;;;;5072778;28;20206;-56
2024/03/21 04:06:37;;;;;;;42.33;32.67;;;13.40;99.90;;;;;;5072755;28;20531;-56
2024/03/21 04:09:04;;;;;;;46.03;31.33;;;13.40;99.90;;;;;;5075872;28;20992;-56
2024/03/21 04:11:32;;;;;;;41.80;33.33;;;13.40;99.90;;;;;;5076071;28;20478;-56
2024/03/21 04:13:58;;;;;;;40.03;32.43;;;13.40;99.90;;;;;;5076011;28;20441;-56
2024/03/21 04:16:25;;;;;;;39.67;33.70;;;13.40;99.90;;;;;;5076062;28;20524;-56
2024/03/21 04:18:51;;;;;;;39.57;32.10;;;13.40;99.90;;;;;;5076066;28;20226;-56
2024/03/21 04:21:19;;;;;;;35.40;31.67;;;13.40;99.90;;;;;;5075947;28;20439;-56
2024/03/21 04:23:45;;;;;;;44.97;32.73;;;13.40;99.90;;;;;;5076473;28;20290;-56
2024/03/21 04:26:12;;;;;;;45.80;33.17;;;13.40;99.90;;;;;;5075877;28;20885;-56
2024/03/21 04:28:39;;;;;;;42.47;33.30;;;13.40;99.90;;;;;;5076517;28;20233;-56
2024/03/21 04:31:06;;;;;;;43.57;33.17;;;13.40;99.90;;;;;;5075672;28;20503;-56
2024/03/21 04:33:32;;;;;;;45.53;34.97;;;13.30;99.90;;;;;;5075492;28;21024;-56
2024/03/21 04:36:00;;;;;;;45.37;34.87;;;13.40;99.90;;;;;;5075614;28;20481;-56
2024/03/21 04:38:28;;;;;;;42.67;33.37;;;13.30;99.90;;;;;;5075249;28;20884;-56
2024/03/21 04:40:55;;;;;;;39.60;32.90;;;13.30;99.90;;;;;;5075558;28;20527;-56
2024/03/21 04:43:21;;;;;;;46.63;32.70;;;13.30;99.90;;;;;;5075586;28;20455;-56
2024/03/21 04:45:48;;;;;;;49.40;33.63;;;13.30;99.90;;;;;;5075473;28;20440;-56
2024/03/21 04:48:14;;;;;;;42.63;32.57;;;13.30;99.90;;;;;;5075317;28;20471;-56
2024/03/21 04:50:41;;;;;;;42.47;34.87;;;13.30;99.90;;;;;;5075081;28;20449;-56
2024/03/21 04:53:08;;;;;;;43.87;34.67;;;13.20;99.90;;;;;;5075386;28;20479;-56
2024/03/21 04:55:37;;;;;;;43.83;34.80;;;13.20;99.90;;;;;;5075337;28;20531;-56
2024/03/21 04:58:04;;;;;;;50.70;34.10;;;13.10;99.90;;;;;;5074896;28;20458;-56
2024/03/21 05:00:31;;;;;;;48.33;35.90;;;13.10;99.90;;;;;;5075297;28;20436;-56
2024/03/21 05:02:58;;;;;;;44.40;34.60;;;13.10;99.90;;;;;;5075169;28;20437;-56
2024/03/21 05:05:24;;;;;;;46.90;37.00;;;13.10;99.90;;;;;;5074705;28;20673;-56
2024/03/21 05:07:51;;;;;;;43.40;35.30;;;13.00;99.90;;;;;;5074634;28;20536;-56
2024/03/21 05:10:17;;;;;;;41.20;33.23;;;13.00;99.90;;;;;;5074875;28;20223;-56
2024/03/21 05:12:45;;;;;;;40.13;33.43;;;13.00;99.90;;;;;;5075086;28;20491;-56
2024/03/21 05:15:11;;;;;;;42.87;32.60;;;13.00;99.90;;;;;;5075079;28;20202;-56
2024/03/21 05:17:38;;;;;;;40.67;33.07;;;12.90;99.90;;;;;;5074922;28;20535;-56
2024/03/21 05:20:06;;;;;;;44.13;33.93;;;12.90;99.90;;;;;;5074873;28;20227;-56
2024/03/21 05:22:33;;;;;;;37.27;30.80;;;12.90;99.90;;;;;;5074623;28;20449;-56
2024/03/21 05:24:59;;;;;;;35.10;29.77;;;12.90;99.90;;;;;;5074811;28;20447;-56
2024/03/21 05:27:26;;;;;;;38.27;29.63;;;12.80;99.90;;;;;;5074681;28;20535;-56
2024/03/21 05:29:53;;;;;;;39.80;30.00;;;12.90;99.90;;;;;;5074634;28;20313;-56
2024/03/21 05:32:20;;;;;;;32.60;27.40;;;12.90;99.90;;;;;;5074588;28;20555;-56
2024/03/21 05:34:46;;;;;;;34.13;29.20;;;12.90;99.90;;;;;;5074472;28;20533;-56
2024/03/21 05:37:12;;;;;;;35.03;28.57;;;12.90;99.90;;;;;;5074650;28;20873;-56
2024/03/21 05:39:38;;;;;;;34.10;27.37;;;12.90;99.90;;;;;;5074140;28;20604;-56
2024/03/21 05:42:05;;;;;;;35.23;25.60;;;12.80;99.90;;;;;;5074486;28;20441;-56
2024/03/21 05:44:31;;;;;;;33.73;26.37;;;12.80;99.90;;;;;;5074364;28;20229;-56
2024/03/21 05:46:59;;;;;;;36.50;26.93;;;12.80;99.90;;;;;;5074152;28;21001;-56
2024/03/21 05:49:25;;;;;;;35.83;26.47;;;12.80;99.90;;;;;;5074748;28;20229;-56
2024/03/21 05:51:52;;;;;;;34.40;26.57;;;12.80;99.90;;;;;;5073740;28;20982;-56
2024/03/21 05:54:18;;;;;;;34.00;24.30;;;12.80;99.90;;;;;;5074128;28;20202;-56
2024/03/21 05:56:45;;;;;;;31.20;25.00;;;12.80;99.90;;;;;;5073573;28;20483;-56
2024/03/21 05:59:12;;;;;;;35.53;25.70;;;12.90;99.90;;;;;;5074127;28;20233;-56
2024/03/21 06:01:39;;;;;;;30.10;23.47;;;12.90;99.90;;;;;;5074024;28;20877;-56
2024/03/21 06:04:08;;;;;;;32.17;24.27;;;13.00;99.90;;;;;;5073712;28;20966;-56
2024/03/21 06:06:35;;;;;;;32.80;24.70;;;12.90;99.90;;;;;;5073900;28;20449;-56
2024/03/21 06:09:02;;;;;;;29.57;23.70;;;12.90;99.90;;;;;;5073734;28;20486;-56
2024/03/21 06:11:29;;;;;;;39.13;25.17;;;12.90;99.90;;;;;;5073757;28;20480;-56
2024/03/21 06:13:55;;;;;;;35.67;24.40;;;12.90;99.90;;;;;;5073470;28;20966;-56
2024/03/21 06:16:22;;;;;;;35.10;25.37;;;13.00;99.90;;;;;;5073397;28;20531;-56
2024/03/21 06:18:48;;;;;;;33.13;25.57;;;13.00;99.90;;;;;;5073659;28;20309;-56
2024/03/21 06:21:16;;;;;;;35.07;26.50;;;13.00;99.90;;;;;;5073663;28;20527;-56
2024/03/21 06:23:42;;;;;;;32.10;27.57;;;12.90;99.90;;;;;;5073660;28;20202;-56
2024/03/21 06:26:09;;;;;;;37.70;28.70;;;12.90;99.90;;;;;;5073467;28;20934;-56
2024/03/21 06:28:35;;;;;;;36.70;29.40;;;12.90;99.90;;;;;;5073036;28;20757;-56
2024/03/21 06:31:02;;;;;;;38.10;30.60;;;12.90;99.90;;;;;;5072731;28;20445;-56
2024/03/21 06:33:28;;;;;;;43.90;30.07;;;12.90;99.90;;;;;;5073449;28;20218;-56
2024/03/21 06:35:54;;;;;;;42.00;33.17;;;13.00;99.90;;;;;;5073616;28;20447;-56
2024/03/21 06:38:22;;;;;;;39.87;30.83;;;13.00;99.90;;;;;;5073273;28;20210;-56
2024/03/21 06:40:49;;;;;;;35.63;29.33;;;13.00;99.90;;;;;;5073230;28;20448;-56
2024/03/21 06:43:14;;;;;;;41.50;33.63;;;13.00;99.90;;;;;;5073425;28;20433;-56
2024/03/21 06:45:42;;;;;;;43.70;32.67;;;13.00;99.90;;;;;;5073038;28;20444;-56
2024/03/21 06:48:08;;;;;;;43.80;31.30;;;13.10;99.90;;;;;;5073269;28;20210;-57
2024/03/21 06:50:35;;;;;;;38.17;30.80;;;13.20;99.90;;;;;;5073581;28;20882;-56
2024/03/21 06:53:01;;;;;;;42.27;30.87;;;13.20;99.90;;;;;;5073150;28;20567;-56
2024/03/21 06:55:29;;;;;;;40.80;31.23;;;13.20;99.90;;;;;;5073198;28;20480;-56
2024/03/21 06:57:56;;;;;;;38.43;29.93;;;13.20;99.90;;;;;;5073499;28;20212;-56
2024/03/21 07:00:23;;;;;;;38.33;30.83;;;13.20;99.90;;;;;;5073454;28;20469;-56
2024/03/21 07:02:50;;;;;;;36.63;30.40;;;13.20;99.90;;;;;;5073713;28;20520;-56
2024/03/21 07:05:17;;;;;;;37.33;30.40;;;13.30;99.90;;;;;;5073580;28;20445;-56
2024/03/21 07:07:43;;;;;;;41.10;31.97;;;13.30;99.90;;;;;;5073678;28;20519;-56
2024/03/21 07:10:10;;;;;;;41.07;30.30;;;13.30;99.90;;;;;;5073752;28;20492;-56
2024/03/21 07:12:38;;;;;;;39.00;31.00;;;13.40;99.90;;;;;;5073814;28;20229;-56
2024/03/21 07:15:06;;;;;;;42.60;31.20;;;13.40;99.90;;;;;;5073513;28;20444;-57
2024/03/21 07:17:33;;;;;;;37.17;31.47;;;13.40;99.90;;;;;;5074939;28;20444;-56
2024/03/21 07:19:59;;;;;;;33.80;28.97;;;13.40;99.90;;;;;;5074802;28;20467;-56
2024/03/21 07:22:26;;;;;;;37.43;30.57;;;13.40;99.90;;;;;;5074374;28;20497;-56
2024/03/21 07:24:52;;;;;;;35.50;31.20;;;13.50;99.90;;;;;;5073454;28;20447;-56
2024/03/21 07:27:19;;;;;;;46.70;33.23;;;13.40;99.90;;;;;;5072803;28;20428;-56
2024/03/21 07:29:46;;;;;;;48.70;31.93;;;13.40;99.90;;;;;;5072855;28;20309;-56
2024/03/21 07:32:13;;;;;;;37.33;31.53;;;13.40;99.90;;;;;;5072629;28;20480;-56
2024/03/21 07:34:39;;;;;;;43.33;31.90;;;13.40;99.90;;;;;;5072918;28;20447;-56
2024/03/21 07:37:06;;;;;;;33.47;29.63;;;13.50;99.90;;;;;;5072777;28;20535;-56
2024/03/21 07:39:34;;;;;;;35.30;28.93;;;13.60;99.90;;;;;;5072675;28;20310;-56
2024/03/21 07:42:05;;;;;;;39.47;30.43;;;13.60;99.90;;;;;;5073894;28;20455;-56
2024/03/21 07:44:31;;;;;;;35.60;28.20;;;13.50;99.90;;;;;;5076560;28;20429;-55
2024/03/21 07:46:59;;;;;;;33.73;29.23;;;13.60;99.90;;;;;;5076682;28;20444;-56
2024/03/21 07:49:25;;;;;;;34.33;27.87;;;13.60;99.90;;;;;;5076530;28;20232;-56
2024/03/21 07:51:52;;;;;;;38.53;28.70;;;13.60;99.90;;;;;;5076164;28;21084;-56
2024/03/21 07:54:18;;;;;;;32.87;28.53;;;13.60;99.90;;;;;;5076270;28;20293;-56
2024/03/21 07:56:45;;;;;;;38.10;28.57;;;13.70;99.90;;;;;;5076255;28;20543;-56
2024/03/21 07:59:11;;;;;;;36.90;27.57;;;13.70;99.90;;;;;;5076413;28;20465;-56
2024/03/21 08:01:39;;;;;;;31.23;24.87;;;13.70;99.90;;;;;;5076541;28;20444;-56
2024/03/21 08:04:08;;;;;;;39.77;26.67;;;13.80;99.90;;;;;;5076367;28;20308;-55
2024/03/21 08:06:35;;;;;;;28.47;23.60;;;13.80;99.90;;;;;;5076350;28;20455;-55
2024/03/21 08:09:02;;;;;;;28.53;24.20;;;13.90;99.90;;;;;;5076024;28;20464;-56
2024/03/21 08:11:29;;;;;;;32.30;24.73;;;14.00;99.90;;;;;;5076026;28;20551;-55
2024/03/21 08:13:55;;;;;;;26.10;22.87;;;14.00;99.90;;;;;;5076169;28;20487;-55
2024/03/21 08:16:21;;;;;;;24.70;19.53;;;14.10;99.90;;;;;;5076139;28;20531;-55
2024/03/21 08:18:47;;;;;;;22.37;19.93;;;14.10;99.90;;;;;;5076019;28;20309;-56
2024/03/21 08:21:16;;;;;;;25.00;21.73;;;14.20;99.90;;;;;;5076190;28;20547;-55
2024/03/21 08:23:42;;;;;;;24.47;20.90;;;14.20;99.90;;;;;;5076000;28;20285;-55
2024/03/21 08:26:09;;;;;;;23.93;19.70;;;14.20;99.90;;;;;;5075670;28;20965;-55
2024/03/21 08:28:35;;;;;;;20.10;17.67;;;14.30;99.90;;;;;;5075719;28;20471;-55
2024/03/21 08:31:02;;;;;;;19.73;17.60;;;14.40;99.90;;;;;;5075847;28;20523;-56
2024/03/21 08:33:28;;;;;;;18.07;15.30;;;14.40;99.90;;;;;;5075778;28;20309;-55
2024/03/21 08:35:55;;;;;;;17.80;15.93;;;14.50;99.90;;;;;;5075832;28;20448;-55
2024/03/21 08:38:22;;;;;;;16.50;13.87;;;14.50;99.90;;;;;;5075403;28;20443;-56
2024/03/21 08:40:52;;;;;;;16.83;14.80;;;14.60;99.90;;;;;;5075320;28;20908;-56
2024/03/21 08:43:18;;;;;;;18.73;15.77;;;14.60;99.90;;;;;;5075353;28;20476;-55
2024/03/21 08:45:46;;;;;;;20.30;15.83;;;14.60;99.90;;;;;;5075254;28;20942;-55
2024/03/21 08:48:13;;;;;;;18.53;16.53;;;14.60;99.90;;;;;;5075350;28;20444;-56
2024/03/21 08:50:40;;;;;;;16.53;14.93;;;14.60;99.90;;;;;;5075455;28;20445;-55
2024/03/21 08:53:06;;;;;;;16.90;15.20;;;14.50;99.70;;;;;;5075018;28;20498;-56
2024/03/21 08:55:36;;;;;;;21.93;15.10;;;14.50;99.90;;;;;;5075091;28;20532;-55
2024/03/21 08:58:02;;;;;;;16.97;15.17;;;14.60;99.90;;;;;;5074990;28;20456;-55
2024/03/21 09:00:31;;;;;;;16.90;13.70;;;14.60;99.90;;;;;;5075284;28;20460;-55
2024/03/21 09:02:57;;;;;;;14.63;13.10;;;14.60;99.70;;;;;;5074944;28;20941;-55
2024/03/21 09:05:24;;;;;;;15.53;13.23;;;14.70;99.90;;;;;;5075234;28;20444;-55
2024/03/21 09:07:50;;;;;;;13.27;11.77;;;14.70;99.30;;;;;;5075195;28;20289;-55
2024/03/21 09:10:17;;;;;;;12.57;11.37;;;14.80;99.40;;;;;;5074524;28;20552;-56
2024/03/21 09:12:44;;;;;;;14.70;12.13;;;15.00;98.70;;;;;;5074777;28;20472;-55
2024/03/21 09:15:14;;;;;;;14.53;13.03;;;15.00;98.20;;;;;;5074691;28;21024;-55
2024/03/21 09:17:39;;;;;;;14.13;12.60;;;14.90;98.30;;;;;;5074949;28;20467;-55
2024/03/21 09:20:07;;;;;;;12.17;10.97;;;14.90;98.60;;;;;;5074876;28;20465;-56
2024/03/21 09:22:33;;;;;;;10.17;9.27;;;14.90;98.60;;;;;;5074577;28;20499;-55
2024/03/21 09:25:00;;;;;;;10.63;9.63;;;14.80;97.90;;;;;;5074708;28;20480;-56
2024/03/21 09:27:26;;;;;;;10.33;9.33;;;14.80;97.70;;;;;;5074417;28;20731;-56
2024/03/21 09:29:54;;;;;;;10.63;9.63;;;14.90;98.60;;;;;;5074527;28;20548;-56
2024/03/21 09:32:20;;;;;;;9.90;8.90;;;15.00;98.00;;;;;;5074493;28;20244;-56
2024/03/21 09:34:49;;;;;;;10.03;9.03;;;15.10;97.60;;;;;;5074792;28;21004;-55
2024/03/21 09:37:16;;;;;;;10.10;9.10;;;15.10;97.30;;;;;;5074933;28;20630;-55
2024/03/21 09:39:43;;;;;;;10.63;9.27;;;15.30;97.70;;;;;;5074412;28;20472;-56
2024/03/21 09:42:13;;;;;;;9.20;8.30;;;15.40;97.00;;;;;;5074134;28;20447;-55
2024/03/21 09:44:40;;;;;;;9.03;8.13;;;15.50;97.10;;;;;;5074115;28;20475;-55
2024/03/21 09:47:10;;;;;;;8.17;7.37;;;15.70;96.10;;;;;;5074100;28;20887;-55
2024/03/21 09:49:37;;;;;;;8.93;8.00;;;15.90;96.00;;;;;;5073876;28;20990;-55
2024/03/21 09:52:04;;;;;;;8.10;7.30;;;16.00;95.00;;;;;;5074064;28;20444;-56
2024/03/21 09:54:33;;;;;;;7.90;7.20;;;15.90;94.10;;;;;;5074193;28;20445;-56
2024/03/21 09:56:59;;;;;;;7.50;6.80;;;15.90;95.10;;;;;;5073716;28;20950;-56
2024/03/21 09:59:26;;;;;;;8.20;6.70;;;15.90;95.00;;;;;;5074134;28;20514;-56
2024/03/21 10:01:52;;;;;;;6.50;6.00;;;15.90;94.50;;;;;;5074217;28;20528;-55
2024/03/21 10:04:20;;;;;;;6.47;5.97;;;15.80;93.90;;;;;;5073584;28;20451;-55
2024/03/21 10:06:47;;;;;;;6.40;5.60;;;15.80;94.60;;;;;;5073395;28;20443;-55
2024/03/21 10:09:13;;;;;;;8.57;6.40;;;15.80;94.10;;;;;;5073527;28;20844;-55
2024/03/21 10:11:40;;;;;;;10.83;6.23;;;15.80;93.90;;;;;;5073921;28;20436;-55
2024/03/21 10:14:10;;;;;;;6.37;5.77;;;15.80;93.90;;;;;;5073763;28;20523;-55
2024/03/21 10:16:36;;;;;;;5.90;5.40;;;15.90;94.00;;;;;;5073483;28;20436;-56
2024/03/21 10:19:03;;;;;;;6.37;5.80;;;16.00;93.90;;;;;;5073423;28;20552;-55
2024/03/21 10:21:30;;;;;;;5.50;4.97;;;16.20;93.20;;;;;;5073704;28;20202;-56
2024/03/21 10:24:05;;;;;;;5.70;5.20;;;16.40;92.90;;;;;;5073381;28;20934;-55
2024/03/21 10:26:31;;;;;;;5.27;4.77;;;16.80;92.60;;;;;;5073978;28;20451;-55
2024/03/21 10:28:58;;;;;;;4.93;4.53;;;17.10;91.50;;;;;;5074067;28;20468;-55
2024/03/21 10:31:25;;;;;;;5.60;5.20;;;17.20;90.30;;;;;;5073946;28;20466;-55
2024/03/21 10:33:54;;;;;;;5.50;5.10;;;17.30;90.30;;;;;;5073471;28;20571;-55
2024/03/21 10:36:21;;;;;;;5.30;5.00;;;17.40;89.20;;;;;;5073469;28;20432;-55
2024/03/21 10:38:50;;;;;;;5.13;4.83;;;17.50;89.80;;;;;;5073303;28;20538;-55
2024/03/21 10:41:21;;;;;;;6.20;5.60;;;17.60;88.70;;;;;;5073297;28;20944;-55
2024/03/21 10:43:53;;;;;;;7.27;6.67;;;17.70;88.70;;;;;;5073711;28;20436;-55
2024/03/21 10:46:20;;;;;;;6.83;6.23;;;17.80;87.00;;;;;;5073649;28;20437;-56
2024/03/21 10:48:47;;;;;;;7.73;5.97;;;17.80;87.00;;;;;;5073006;28;20854;-56
2024/03/21 10:51:15;;;;;;;5.60;5.20;;;17.80;85.20;;;;;;5073354;28;20440;-55
2024/03/21 10:53:54;;;;;;;6.57;6.00;;;17.80;86.20;;;;;;5073405;28;20472;-56
2024/03/21 10:56:23;;;;;;;5.87;5.37;;;17.70;84.50;;;;;;5073325;28;20547;-56
2024/03/21 10:58:55;;;;;;;8.53;5.33;;;17.70;85.30;;;;;;5073330;28;20464;-56
2024/03/21 11:01:31;;;;;;;7.87;7.20;;;17.80;86.00;;;;;;5073605;28;20459;-55
2024/03/21 11:04:02;;;;;;;6.43;5.93;;;18.10;85.70;;;;;;5073271;28;20432;-56
2024/03/21 11:06:30;;;;;;;5.60;5.13;;;18.40;82.80;;;;;;5073121;28;20808;-56
2024/03/21 11:08:58;;;;;;;5.47;5.07;;;18.60;82.90;;;;;;5073150;28;20551;-56
2024/03/21 11:11:26;;;;;;;7.10;6.40;;;18.60;80.50;;;;;;5073215;28;20447;-56
2024/03/21 11:13:53;;;;;;;6.37;5.87;;;18.40;80.10;;;;;;5073088;28;20483;-56
2024/03/21 11:16:19;;;;;;;6.20;5.70;;;18.30;82.50;;;;;;5074603;28;20523;-56
2024/03/21 11:18:46;;;;;;;7.30;6.67;;;18.20;82.10;;;;;;5076934;28;20564;-56
2024/03/21 11:21:14;;;;;;;5.73;5.33;;;18.00;81.70;;;;;;5077368;28;20202;-55
2024/03/21 11:23:42;;;;;;;6.57;5.30;;;17.80;83.30;;;;;;5077214;28;20498;-55
2024/03/21 11:26:16;;;;;;;7.00;6.07;;;17.50;84.50;;;;;;5077126;28;20455;-55
2024/03/21 11:28:45;;;;;;;7.80;6.57;;;17.20;84.80;;;;;;5076618;28;20491;-55
2024/03/21 11:31:20;;;;;;;7.27;6.77;;;16.90;85.90;;;;;;5077004;28;20451;-55
2024/03/21 11:33:48;;;;;;;6.70;6.20;;;16.80;86.80;;;;;;5076808;28;20468;-55
2024/03/21 11:36:15;;;;;;;6.00;5.50;;;16.90;87.90;;;;;;5076629;28;20444;-55
2024/03/21 11:38:42;;;;;;;6.50;6.00;;;17.20;86.30;;;;;;5076744;28;20509;-55
2024/03/21 11:41:17;;;;;;;7.13;6.60;;;17.50;83.40;;;;;;5076834;28;20815;-55
2024/03/21 11:43:46;;;;;;;6.37;5.87;;;17.60;84.50;;;;;;5076541;28;20421;-55
2024/03/21 11:46:13;;;;;;;6.73;6.20;;;17.90;82.90;;;;;;5076786;28;20519;-56
2024/03/21 11:48:40;;;;;;;6.90;6.30;;;18.30;83.10;;;;;;5076449;28;20471;-56
2024/03/21 11:51:06;;;;;;;6.30;5.70;;;18.40;79.30;;;;;;5077038;28;20444;-55
2024/03/21 11:53:32;;;;;;;6.93;6.43;;;18.70;79.10;;;;;;5076447;28;20482;-56
2024/03/21 11:55:58;;;;;;;6.03;5.43;;;19.10;76.80;;;;;;5076152;28;20672;-56
2024/03/21 11:58:26;;;;;;;7.43;6.10;;;19.40;75.20;;;;;;5076184;28;20515;-56
2024/03/21 12:00:52;;;;;;;5.73;5.23;;;19.40;72.60;;;;;;5076389;28;20209;-55
2024/03/21 12:03:19;;;;;;;5.83;5.20;;;19.10;72.00;;;;;;5076252;28;20515;-55
2024/03/21 12:05:45;;;;;;;6.80;6.30;;;19.00;73.60;;;;;;5076436;28;20202;-56
2024/03/21 12:08:12;;;;;;;5.37;4.97;;;18.90;73.20;;;;;;5076265;28;20979;-56
2024/03/21 12:10:38;;;;;;;5.80;5.30;;;18.90;72.30;;;;;;5075894;28;20203;-56
2024/03/21 12:13:05;;;;;;;4.57;4.27;;;19.10;73.20;;;;;;5076054;28;20563;-55
2024/03/21 12:15:32;;;;;;;6.03;5.53;;;19.60;70.90;;;;;;5075978;28;20206;-55
2024/03/21 12:17:59;;;;;;;4.87;4.53;;;19.80;69.30;;;;;;5076195;28;20440;-55
2024/03/21 12:20:24;;;;;;;5.40;5.10;;;19.60;67.20;;;;;;5076124;28;20464;-55
2024/03/21 12:22:51;;;;;;;5.63;5.10;;;19.40;68.20;;;;;;5075899;28;20531;-55
2024/03/21 12:25:17;;;;;;;6.87;6.30;;;19.10;69.50;;;;;;5076205;28;20209;-55
2024/03/21 12:27:44;;;;;;;6.20;5.80;;;18.90;70.20;;;;;;5075273;28;20533;-55
2024/03/21 12:30:11;;;;;;;8.63;5.73;;;18.80;71.00;;;;;;5075844;28;20321;-55
2024/03/21 12:32:39;;;;;;;6.93;5.83;;;18.90;72.40;;;;;;5075491;28;20483;-56
2024/03/21 12:35:07;;;;;;;6.83;6.13;;;19.20;70.30;;;;;;5075544;28;20441;-55